sensor_id;sensor_type;location;lat;lon;timestamp;P1;durP1;ratioP1;P2;durP2;ratioP2
75634;SDS011;64227;48.724;9.104;2024-03-17T00:02:01;2.28;;;1.55;;
75634;SDS011;64227;48.724;9.104;2024-03-17T00:04:26;2.47;;;1.60;;
75634;SDS011;64227;48.724;9.104;2024-03-17T00:06:52;2.50;;;1.60;;
75634;SDS011;64227;48.724;9.104;2024-03-17T00:09:17;2.92;;;1.88;;
75634;SDS011;64227;48.724;9.104;2024-03-17T00:11:43;2.42;;;1.60;;
75634;SDS011;64227;48.724;9.104;2024-03-17T00:14:10;3.10;;;1.95;;
75634;SDS011;64227;48.724;9.104;2024-03-17T00:16:35;3.95;;;2.20;;
75634;SDS011;64227;48.724;9.104;2024-03-17T00:19:00;1.98;;;1.48;;
75634;SDS011;64227;48.724;9.104;2024-03-17T00:21:26;2.42;;;1.63;;
75634;SDS011;64227;48.724;9.104;2024-03-17T00:23:51;2.17;;;1.65;;
75634;SDS011;64227;48.724;9.104;2024-03-17T00:26:16;2.60;;;1.67;;
75634;SDS011;64227;48.724;9.104;2024-03-17T00:28:44;2.72;;;1.75;;
75634;SDS011;64227;48.724;9.104;2024-03-17T00:31:12;3.30;;;1.83;;
75634;SDS011;64227;48.724;9.104;2024-03-17T00:33:37;2.53;;;1.67;;
75634;SDS011;64227;48.724;9.104;2024-03-17T00:36:02;2.00;;;1.80;;
75634;SDS011;64227;48.724;9.104;2024-03-17T00:38:28;4.05;;;1.95;;
75634;SDS011;64227;48.724;9.104;2024-03-17T00:40:54;2.60;;;1.88;;
75634;SDS011;64227;48.724;9.104;2024-03-17T00:43:19;2.20;;;1.80;;
75634;SDS011;64227;48.724;9.104;2024-03-17T00:45:51;3.63;;;2.10;;
75634;SDS011;64227;48.724;9.104;2024-03-17T00:48:16;3.33;;;2.20;;
75634;SDS011;64227;48.724;9.104;2024-03-17T00:50:42;3.30;;;2.40;;
75634;SDS011;64227;48.724;9.104;2024-03-17T00:53:09;2.45;;;1.77;;
75634;SDS011;64227;48.724;9.104;2024-03-17T00:55:35;2.88;;;1.80;;
75634;SDS011;64227;48.724;9.104;2024-03-17T00:58:00;3.88;;;2.30;;
75634;SDS011;64227;48.724;9.104;2024-03-17T01:00:25;3.63;;;2.20;;
75634;SDS011;64227;48.724;9.104;2024-03-17T01:02:51;4.20;;;2.15;;
75634;SDS011;64227;48.724;9.104;2024-03-17T01:05:16;3.70;;;2.25;;
75634;SDS011;64227;48.724;9.104;2024-03-17T01:07:41;5.20;;;2.60;;
75634;SDS011;64227;48.724;9.104;2024-03-17T01:10:07;6.97;;;2.72;;
75634;SDS011;64227;48.724;9.104;2024-03-17T01:12:33;4.22;;;2.13;;
75634;SDS011;64227;48.724;9.104;2024-03-17T01:14:59;3.45;;;2.40;;
75634;SDS011;64227;48.724;9.104;2024-03-17T01:17:24;4.10;;;2.15;;
75634;SDS011;64227;48.724;9.104;2024-03-17T01:19:50;3.70;;;2.00;;
75634;SDS011;64227;48.724;9.104;2024-03-17T01:22:16;2.85;;;2.22;;
75634;SDS011;64227;48.724;9.104;2024-03-17T01:24:42;3.15;;;2.25;;
75634;SDS011;64227;48.724;9.104;2024-03-17T01:27:11;4.88;;;2.42;;
75634;SDS011;64227;48.724;9.104;2024-03-17T01:29:39;4.75;;;2.25;;
75634;SDS011;64227;48.724;9.104;2024-03-17T01:32:05;3.65;;;2.15;;
75634;SDS011;64227;48.724;9.104;2024-03-17T01:34:31;4.07;;;1.92;;
75634;SDS011;64227;48.724;9.104;2024-03-17T01:36:56;3.17;;;2.15;;
75634;SDS011;64227;48.724;9.104;2024-03-17T01:39:21;4.70;;;2.22;;
75634;SDS011;64227;48.724;9.104;2024-03-17T01:41:47;4.00;;;2.05;;
75634;SDS011;64227;48.724;9.104;2024-03-17T01:44:28;4.50;;;2.33;;
75634;SDS011;64227;48.724;9.104;2024-03-17T01:46:57;3.67;;;2.22;;
75634;SDS011;64227;48.724;9.104;2024-03-17T01:49:22;2.92;;;2.00;;
75634;SDS011;64227;48.724;9.104;2024-03-17T01:51:48;4.65;;;2.20;;
75634;SDS011;64227;48.724;9.104;2024-03-17T01:54:15;3.13;;;2.20;;
75634;SDS011;64227;48.724;9.104;2024-03-17T01:56:41;3.10;;;2.05;;
75634;SDS011;64227;48.724;9.104;2024-03-17T01:59:08;2.92;;;2.30;;
75634;SDS011;64227;48.724;9.104;2024-03-17T02:01:37;4.18;;;2.00;;
75634;SDS011;64227;48.724;9.104;2024-03-17T02:04:03;3.38;;;2.28;;
75634;SDS011;64227;48.724;9.104;2024-03-17T02:06:29;4.75;;;2.08;;
75634;SDS011;64227;48.724;9.104;2024-03-17T02:08:55;3.13;;;2.20;;
75634;SDS011;64227;48.724;9.104;2024-03-17T02:13:53;2.92;;;1.92;;
75634;SDS011;64227;48.724;9.104;2024-03-17T02:16:19;4.50;;;2.22;;
75634;SDS011;64227;48.724;9.104;2024-03-17T02:18:45;4.13;;;2.35;;
75634;SDS011;64227;48.724;9.104;2024-03-17T02:21:11;3.83;;;1.92;;
75634;SDS011;64227;48.724;9.104;2024-03-17T02:26:05;3.40;;;2.25;;
75634;SDS011;64227;48.724;9.104;2024-03-17T02:28:38;4.18;;;2.28;;
75634;SDS011;64227;48.724;9.104;2024-03-17T02:31:07;4.32;;;2.00;;
75634;SDS011;64227;48.724;9.104;2024-03-17T02:33:34;2.33;;;1.90;;
75634;SDS011;64227;48.724;9.104;2024-03-17T02:35:59;2.92;;;1.77;;
75634;SDS011;64227;48.724;9.104;2024-03-17T02:38:24;3.25;;;2.00;;
75634;SDS011;64227;48.724;9.104;2024-03-17T02:41:09;3.28;;;1.75;;
75634;SDS011;64227;48.724;9.104;2024-03-17T02:43:34;2.28;;;1.70;;
75634;SDS011;64227;48.724;9.104;2024-03-17T02:46:01;3.13;;;2.17;;
75634;SDS011;64227;48.724;9.104;2024-03-17T02:48:29;5.07;;;2.40;;
75634;SDS011;64227;48.724;9.104;2024-03-17T02:50:55;3.45;;;2.20;;
75634;SDS011;64227;48.724;9.104;2024-03-17T02:53:21;3.53;;;2.58;;
75634;SDS011;64227;48.724;9.104;2024-03-17T02:55:46;2.58;;;1.70;;
75634;SDS011;64227;48.724;9.104;2024-03-17T02:58:11;3.72;;;2.05;;
75634;SDS011;64227;48.724;9.104;2024-03-17T03:00:36;4.53;;;2.08;;
75634;SDS011;64227;48.724;9.104;2024-03-17T03:03:02;3.00;;;2.20;;
75634;SDS011;64227;48.724;9.104;2024-03-17T03:05:27;3.22;;;1.98;;
75634;SDS011;64227;48.724;9.104;2024-03-17T03:07:52;3.83;;;2.10;;
75634;SDS011;64227;48.724;9.104;2024-03-17T03:10:18;2.47;;;2.05;;
75634;SDS011;64227;48.724;9.104;2024-03-17T03:12:43;2.63;;;1.83;;
75634;SDS011;64227;48.724;9.104;2024-03-17T03:15:09;3.65;;;2.13;;
75634;SDS011;64227;48.724;9.104;2024-03-17T03:17:34;2.65;;;2.00;;
75634;SDS011;64227;48.724;9.104;2024-03-17T03:19:59;3.10;;;2.17;;
75634;SDS011;64227;48.724;9.104;2024-03-17T03:22:26;3.97;;;2.05;;
75634;SDS011;64227;48.724;9.104;2024-03-17T03:24:51;4.47;;;2.50;;
75634;SDS011;64227;48.724;9.104;2024-03-17T03:27:17;4.15;;;2.00;;
75634;SDS011;64227;48.724;9.104;2024-03-17T03:29:42;3.65;;;2.17;;
75634;SDS011;64227;48.724;9.104;2024-03-17T03:32:08;3.55;;;2.40;;
75634;SDS011;64227;48.724;9.104;2024-03-17T03:34:33;2.60;;;1.90;;
75634;SDS011;64227;48.724;9.104;2024-03-17T03:36:59;3.33;;;2.22;;
75634;SDS011;64227;48.724;9.104;2024-03-17T03:39:24;3.90;;;2.45;;
75634;SDS011;64227;48.724;9.104;2024-03-17T03:41:52;3.33;;;1.95;;
75634;SDS011;64227;48.724;9.104;2024-03-17T03:44:17;3.33;;;2.60;;
75634;SDS011;64227;48.724;9.104;2024-03-17T03:46:44;4.88;;;2.55;;
75634;SDS011;64227;48.724;9.104;2024-03-17T03:49:09;3.15;;;2.35;;
75634;SDS011;64227;48.724;9.104;2024-03-17T03:51:35;5.18;;;3.00;;
75634;SDS011;64227;48.724;9.104;2024-03-17T03:54:00;3.88;;;2.35;;
75634;SDS011;64227;48.724;9.104;2024-03-17T03:56:25;3.63;;;2.38;;
75634;SDS011;64227;48.724;9.104;2024-03-17T03:58:51;3.88;;;2.70;;
75634;SDS011;64227;48.724;9.104;2024-03-17T04:01:16;3.63;;;2.42;;
75634;SDS011;64227;48.724;9.104;2024-03-17T04:03:46;3.47;;;2.72;;
75634;SDS011;64227;48.724;9.104;2024-03-17T04:06:12;4.95;;;2.63;;
75634;SDS011;64227;48.724;9.104;2024-03-17T04:08:40;3.75;;;2.50;;
75634;SDS011;64227;48.724;9.104;2024-03-17T04:11:06;4.35;;;2.60;;
75634;SDS011;64227;48.724;9.104;2024-03-17T04:13:32;3.97;;;2.72;;
75634;SDS011;64227;48.724;9.104;2024-03-17T04:16:01;3.25;;;2.40;;
75634;SDS011;64227;48.724;9.104;2024-03-17T04:18:30;3.80;;;2.40;;
75634;SDS011;64227;48.724;9.104;2024-03-17T04:20:56;3.67;;;2.50;;
75634;SDS011;64227;48.724;9.104;2024-03-17T04:23:22;5.82;;;2.95;;
75634;SDS011;64227;48.724;9.104;2024-03-17T04:25:48;5.97;;;2.85;;
75634;SDS011;64227;48.724;9.104;2024-03-17T04:28:15;3.92;;;3.00;;
75634;SDS011;64227;48.724;9.104;2024-03-17T04:30:40;5.60;;;2.97;;
75634;SDS011;64227;48.724;9.104;2024-03-17T04:33:06;3.83;;;2.95;;
75634;SDS011;64227;48.724;9.104;2024-03-17T04:35:35;4.60;;;2.70;;
75634;SDS011;64227;48.724;9.104;2024-03-17T04:38:01;4.60;;;2.95;;
75634;SDS011;64227;48.724;9.104;2024-03-17T04:40:26;4.65;;;2.92;;
75634;SDS011;64227;48.724;9.104;2024-03-17T04:42:51;5.25;;;2.88;;
75634;SDS011;64227;48.724;9.104;2024-03-17T04:45:17;4.13;;;3.08;;
75634;SDS011;64227;48.724;9.104;2024-03-17T04:47:42;5.63;;;3.53;;
75634;SDS011;64227;48.724;9.104;2024-03-17T04:50:08;5.97;;;3.17;;
75634;SDS011;64227;48.724;9.104;2024-03-17T04:52:33;4.90;;;3.38;;
75634;SDS011;64227;48.724;9.104;2024-03-17T04:54:59;4.72;;;2.95;;
75634;SDS011;64227;48.724;9.104;2024-03-17T04:57:24;5.00;;;3.03;;
75634;SDS011;64227;48.724;9.104;2024-03-17T04:59:49;4.65;;;3.20;;
75634;SDS011;64227;48.724;9.104;2024-03-17T05:02:15;5.28;;;3.33;;
75634;SDS011;64227;48.724;9.104;2024-03-17T05:04:40;5.15;;;3.15;;
75634;SDS011;64227;48.724;9.104;2024-03-17T05:07:07;7.38;;;3.10;;
75634;SDS011;64227;48.724;9.104;2024-03-17T05:09:32;6.45;;;3.97;;
75634;SDS011;64227;48.724;9.104;2024-03-17T05:11:58;5.75;;;3.45;;
75634;SDS011;64227;48.724;9.104;2024-03-17T05:14:23;5.03;;;2.90;;
75634;SDS011;64227;48.724;9.104;2024-03-17T05:16:50;4.75;;;3.40;;
75634;SDS011;64227;48.724;9.104;2024-03-17T05:19:16;5.95;;;3.63;;
75634;SDS011;64227;48.724;9.104;2024-03-17T05:21:42;6.80;;;3.95;;
75634;SDS011;64227;48.724;9.104;2024-03-17T05:24:08;5.43;;;3.65;;
75634;SDS011;64227;48.724;9.104;2024-03-17T05:26:33;6.40;;;3.50;;
75634;SDS011;64227;48.724;9.104;2024-03-17T05:32:20;5.90;;;3.17;;
75634;SDS011;64227;48.724;9.104;2024-03-17T05:34:45;6.25;;;3.42;;
75634;SDS011;64227;48.724;9.104;2024-03-17T05:37:10;5.63;;;3.83;;
75634;SDS011;64227;48.724;9.104;2024-03-17T05:39:36;5.50;;;3.65;;
75634;SDS011;64227;48.724;9.104;2024-03-17T05:42:01;5.25;;;3.53;;
75634;SDS011;64227;48.724;9.104;2024-03-17T05:44:28;6.70;;;3.70;;
75634;SDS011;64227;48.724;9.104;2024-03-17T05:46:54;6.63;;;3.90;;
75634;SDS011;64227;48.724;9.104;2024-03-17T05:49:22;7.18;;;4.00;;
75634;SDS011;64227;48.724;9.104;2024-03-17T05:51:48;5.95;;;3.92;;
75634;SDS011;64227;48.724;9.104;2024-03-17T05:54:13;6.80;;;3.90;;
75634;SDS011;64227;48.724;9.104;2024-03-17T05:56:39;6.90;;;4.22;;
75634;SDS011;64227;48.724;9.104;2024-03-17T05:59:04;5.88;;;3.90;;
75634;SDS011;64227;48.724;9.104;2024-03-17T06:01:30;7.20;;;4.28;;
75634;SDS011;64227;48.724;9.104;2024-03-17T06:03:55;6.55;;;3.90;;
75634;SDS011;64227;48.724;9.104;2024-03-17T06:06:21;5.35;;;3.42;;
75634;SDS011;64227;48.724;9.104;2024-03-17T06:08:47;6.53;;;3.75;;
75634;SDS011;64227;48.724;9.104;2024-03-17T06:11:14;6.75;;;3.75;;
75634;SDS011;64227;48.724;9.104;2024-03-17T06:13:39;6.03;;;3.83;;
75634;SDS011;64227;48.724;9.104;2024-03-17T06:16:05;7.32;;;3.95;;
75634;SDS011;64227;48.724;9.104;2024-03-17T06:18:30;4.60;;;3.38;;
75634;SDS011;64227;48.724;9.104;2024-03-17T06:20:56;7.93;;;3.75;;
75634;SDS011;64227;48.724;9.104;2024-03-17T06:23:23;6.45;;;4.15;;
75634;SDS011;64227;48.724;9.104;2024-03-17T06:25:48;9.07;;;4.38;;
75634;SDS011;64227;48.724;9.104;2024-03-17T06:28:15;6.05;;;3.97;;
75634;SDS011;64227;48.724;9.104;2024-03-17T06:30:45;5.72;;;3.85;;
75634;SDS011;64227;48.724;9.104;2024-03-17T06:33:15;8.48;;;4.07;;
75634;SDS011;64227;48.724;9.104;2024-03-17T06:35:43;6.57;;;3.83;;
75634;SDS011;64227;48.724;9.104;2024-03-17T06:38:09;8.65;;;4.55;;
75634;SDS011;64227;48.724;9.104;2024-03-17T06:40:35;8.52;;;4.85;;
75634;SDS011;64227;48.724;9.104;2024-03-17T06:43:00;9.40;;;5.60;;
75634;SDS011;64227;48.724;9.104;2024-03-17T06:45:26;7.50;;;5.25;;
75634;SDS011;64227;48.724;9.104;2024-03-17T06:47:52;10.27;;;5.45;;
75634;SDS011;64227;48.724;9.104;2024-03-17T06:50:17;9.98;;;5.93;;
75634;SDS011;64227;48.724;9.104;2024-03-17T06:52:42;8.35;;;5.78;;
75634;SDS011;64227;48.724;9.104;2024-03-17T06:55:08;8.50;;;5.63;;
75634;SDS011;64227;48.724;9.104;2024-03-17T06:57:33;9.65;;;5.35;;
75634;SDS011;64227;48.724;9.104;2024-03-17T06:59:59;9.77;;;6.00;;
75634;SDS011;64227;48.724;9.104;2024-03-17T07:02:25;9.35;;;6.20;;
75634;SDS011;64227;48.724;9.104;2024-03-17T07:04:50;8.65;;;5.90;;
75634;SDS011;64227;48.724;9.104;2024-03-17T07:07:15;7.88;;;5.32;;
75634;SDS011;64227;48.724;9.104;2024-03-17T07:09:41;9.55;;;6.03;;
75634;SDS011;64227;48.724;9.104;2024-03-17T07:12:06;9.85;;;5.70;;
75634;SDS011;64227;48.724;9.104;2024-03-17T07:14:32;9.32;;;6.25;;
75634;SDS011;64227;48.724;9.104;2024-03-17T07:16:58;7.82;;;5.38;;
75634;SDS011;64227;48.724;9.104;2024-03-17T07:19:23;8.50;;;5.28;;
75634;SDS011;64227;48.724;9.104;2024-03-17T07:21:48;7.78;;;5.22;;
75634;SDS011;64227;48.724;9.104;2024-03-17T07:24:14;7.15;;;5.03;;
75634;SDS011;64227;48.724;9.104;2024-03-17T07:26:39;8.05;;;4.97;;
75634;SDS011;64227;48.724;9.104;2024-03-17T07:29:04;5.82;;;4.70;;
75634;SDS011;64227;48.724;9.104;2024-03-17T07:31:30;6.78;;;4.75;;
75634;SDS011;64227;48.724;9.104;2024-03-17T07:33:56;7.85;;;4.53;;
75634;SDS011;64227;48.724;9.104;2024-03-17T07:36:22;5.78;;;4.45;;
75634;SDS011;64227;48.724;9.104;2024-03-17T07:38:47;6.60;;;4.15;;
75634;SDS011;64227;48.724;9.104;2024-03-17T07:41:13;5.68;;;4.43;;
75634;SDS011;64227;48.724;9.104;2024-03-17T07:43:39;7.80;;;4.90;;
75634;SDS011;64227;48.724;9.104;2024-03-17T07:48:30;9.27;;;5.65;;
75634;SDS011;64227;48.724;9.104;2024-03-17T07:50:57;7.20;;;5.07;;
75634;SDS011;64227;48.724;9.104;2024-03-17T07:53:23;7.43;;;5.03;;
75634;SDS011;64227;48.724;9.104;2024-03-17T07:55:56;6.75;;;5.25;;
75634;SDS011;64227;48.724;9.104;2024-03-17T07:58:31;9.05;;;5.75;;
75634;SDS011;64227;48.724;9.104;2024-03-17T08:00:58;8.98;;;5.32;;
75634;SDS011;64227;48.724;9.104;2024-03-17T08:03:24;8.20;;;5.03;;
75634;SDS011;64227;48.724;9.104;2024-03-17T08:05:50;5.43;;;4.45;;
75634;SDS011;64227;48.724;9.104;2024-03-17T08:08:16;6.97;;;4.55;;
75634;SDS011;64227;48.724;9.104;2024-03-17T08:10:42;7.60;;;5.35;;
75634;SDS011;64227;48.724;9.104;2024-03-17T08:13:07;5.60;;;4.43;;
75634;SDS011;64227;48.724;9.104;2024-03-17T08:15:34;6.15;;;4.00;;
75634;SDS011;64227;48.724;9.104;2024-03-17T08:18:00;4.85;;;3.70;;
75634;SDS011;64227;48.724;9.104;2024-03-17T08:20:25;5.57;;;3.83;;
75634;SDS011;64227;48.724;9.104;2024-03-17T08:22:50;5.18;;;3.55;;
75634;SDS011;64227;48.724;9.104;2024-03-17T08:25:17;4.50;;;3.55;;
75634;SDS011;64227;48.724;9.104;2024-03-17T08:27:42;4.85;;;3.40;;
75634;SDS011;64227;48.724;9.104;2024-03-17T08:30:08;4.60;;;3.63;;
75634;SDS011;64227;48.724;9.104;2024-03-17T08:32:35;4.95;;;3.88;;
75634;SDS011;64227;48.724;9.104;2024-03-17T08:38:31;5.75;;;3.92;;
75634;SDS011;64227;48.724;9.104;2024-03-17T08:41:26;4.10;;;3.67;;
75634;SDS011;64227;48.724;9.104;2024-03-17T08:43:52;4.53;;;4.00;;
75634;SDS011;64227;48.724;9.104;2024-03-17T08:46:17;4.78;;;3.72;;
75634;SDS011;64227;48.724;9.104;2024-03-17T08:48:43;5.05;;;3.72;;
75634;SDS011;64227;48.724;9.104;2024-03-17T08:51:08;6.45;;;4.53;;
75634;SDS011;64227;48.724;9.104;2024-03-17T08:53:35;5.90;;;3.85;;
75634;SDS011;64227;48.724;9.104;2024-03-17T08:56:03;4.60;;;3.72;;
75634;SDS011;64227;48.724;9.104;2024-03-17T08:58:29;6.85;;;3.63;;
75634;SDS011;64227;48.724;9.104;2024-03-17T09:00:54;5.97;;;3.50;;
75634;SDS011;64227;48.724;9.104;2024-03-17T09:03:21;4.35;;;3.53;;
75634;SDS011;64227;48.724;9.104;2024-03-17T09:05:47;4.05;;;3.30;;
75634;SDS011;64227;48.724;9.104;2024-03-17T09:08:17;5.70;;;3.72;;
75634;SDS011;64227;48.724;9.104;2024-03-17T09:10:45;4.38;;;2.88;;
75634;SDS011;64227;48.724;9.104;2024-03-17T09:13:15;4.45;;;2.67;;
75634;SDS011;64227;48.724;9.104;2024-03-17T09:16:03;2.50;;;2.30;;
75634;SDS011;64227;48.724;9.104;2024-03-17T09:20:57;2.95;;;2.05;;
75634;SDS011;64227;48.724;9.104;2024-03-17T09:23:26;2.08;;;1.88;;
75634;SDS011;64227;48.724;9.104;2024-03-17T09:26:02;4.30;;;1.80;;
75634;SDS011;64227;48.724;9.104;2024-03-17T09:28:29;2.28;;;2.08;;
75634;SDS011;64227;48.724;9.104;2024-03-17T09:30:56;3.70;;;2.00;;
75634;SDS011;64227;48.724;9.104;2024-03-17T09:33:22;2.00;;;1.80;;
75634;SDS011;64227;48.724;9.104;2024-03-17T09:38:22;2.83;;;2.17;;
75634;SDS011;64227;48.724;9.104;2024-03-17T09:40:48;2.63;;;1.60;;
75634;SDS011;64227;48.724;9.104;2024-03-17T09:43:22;1.98;;;1.77;;
75634;SDS011;64227;48.724;9.104;2024-03-17T09:45:51;1.88;;;1.73;;
75634;SDS011;64227;48.724;9.104;2024-03-17T09:48:20;2.00;;;1.77;;
75634;SDS011;64227;48.724;9.104;2024-03-17T09:50:55;2.80;;;2.05;;
75634;SDS011;64227;48.724;9.104;2024-03-17T09:53:28;2.80;;;1.77;;
75634;SDS011;64227;48.724;9.104;2024-03-17T09:55:58;2.30;;;1.67;;
75634;SDS011;64227;48.724;9.104;2024-03-17T09:58:29;3.83;;;1.70;;
75634;SDS011;64227;48.724;9.104;2024-03-17T10:00:54;2.75;;;1.60;;
75634;SDS011;64227;48.724;9.104;2024-03-17T10:03:38;2.58;;;1.58;;
75634;SDS011;64227;48.724;9.104;2024-03-17T10:06:14;3.05;;;1.40;;
75634;SDS011;64227;48.724;9.104;2024-03-17T10:08:41;2.95;;;1.85;;
75634;SDS011;64227;48.724;9.104;2024-03-17T10:11:07;3.67;;;1.75;;
75634;SDS011;64227;48.724;9.104;2024-03-17T10:13:33;2.78;;;1.77;;
75634;SDS011;64227;48.724;9.104;2024-03-17T10:15:58;3.92;;;1.95;;
75634;SDS011;64227;48.724;9.104;2024-03-17T10:18:24;3.80;;;2.50;;
75634;SDS011;64227;48.724;9.104;2024-03-17T10:20:49;3.78;;;1.85;;
75634;SDS011;64227;48.724;9.104;2024-03-17T10:23:21;5.22;;;3.75;;
75634;SDS011;64227;48.724;9.104;2024-03-17T10:25:47;4.95;;;2.20;;
75634;SDS011;64227;48.724;9.104;2024-03-17T10:28:13;2.55;;;1.67;;
75634;SDS011;64227;48.724;9.104;2024-03-17T10:30:40;3.13;;;2.10;;
75634;SDS011;64227;48.724;9.104;2024-03-17T10:33:07;3.97;;;2.30;;
75634;SDS011;64227;48.724;9.104;2024-03-17T10:35:36;2.33;;;1.73;;
75634;SDS011;64227;48.724;9.104;2024-03-17T10:38:04;2.58;;;2.17;;
75634;SDS011;64227;48.724;9.104;2024-03-17T10:40:31;1.65;;;1.55;;
75634;SDS011;64227;48.724;9.104;2024-03-17T10:42:59;3.33;;;2.33;;
75634;SDS011;64227;48.724;9.104;2024-03-17T10:45:25;2.03;;;1.85;;
75634;SDS011;64227;48.724;9.104;2024-03-17T10:47:51;3.03;;;2.72;;
75634;SDS011;64227;48.724;9.104;2024-03-17T10:50:18;3.42;;;2.30;;
75634;SDS011;64227;48.724;9.104;2024-03-17T10:52:45;2.50;;;2.10;;
75634;SDS011;64227;48.724;9.104;2024-03-17T10:55:19;3.15;;;2.00;;
75634;SDS011;64227;48.724;9.104;2024-03-17T10:57:49;2.28;;;1.70;;
75634;SDS011;64227;48.724;9.104;2024-03-17T11:00:20;3.53;;;2.45;;
75634;SDS011;64227;48.724;9.104;2024-03-17T11:02:47;5.22;;;2.78;;
75634;SDS011;64227;48.724;9.104;2024-03-17T11:05:18;3.45;;;2.70;;
75634;SDS011;64227;48.724;9.104;2024-03-17T11:07:45;4.28;;;2.88;;
75634;SDS011;64227;48.724;9.104;2024-03-17T11:10:21;3.63;;;2.17;;
75634;SDS011;64227;48.724;9.104;2024-03-17T11:12:48;4.05;;;2.10;;
75634;SDS011;64227;48.724;9.104;2024-03-17T11:17:44;1.47;;;1.33;;
75634;SDS011;64227;48.724;9.104;2024-03-17T11:22:49;2.08;;;1.48;;
75634;SDS011;64227;48.724;9.104;2024-03-17T11:27:50;2.10;;;1.30;;
75634;SDS011;64227;48.724;9.104;2024-03-17T11:38:54;1.92;;;1.00;;
75634;SDS011;64227;48.724;9.104;2024-03-17T11:46:59;1.20;;;0.88;;
75634;SDS011;64227;48.724;9.104;2024-03-17T11:49:26;1.02;;;0.88;;
75634;SDS011;64227;48.724;9.104;2024-03-17T11:51:58;1.15;;;0.82;;
75634;SDS011;64227;48.724;9.104;2024-03-17T11:54:28;3.38;;;1.10;;
75634;SDS011;64227;48.724;9.104;2024-03-17T11:56:55;2.05;;;0.90;;
75634;SDS011;64227;48.724;9.104;2024-03-17T11:59:25;1.45;;;0.60;;
75634;SDS011;64227;48.724;9.104;2024-03-17T12:01:50;2.80;;;1.10;;
75634;SDS011;64227;48.724;9.104;2024-03-17T12:04:17;2.28;;;1.00;;
75634;SDS011;64227;48.724;9.104;2024-03-17T12:06:50;2.20;;;0.70;;
75634;SDS011;64227;48.724;9.104;2024-03-17T12:09:23;2.33;;;0.95;;
75634;SDS011;64227;48.724;9.104;2024-03-17T12:14:31;1.88;;;1.00;;
75634;SDS011;64227;48.724;9.104;2024-03-17T12:16:58;2.85;;;1.00;;
75634;SDS011;64227;48.724;9.104;2024-03-17T12:19:25;1.20;;;0.93;;
75634;SDS011;64227;48.724;9.104;2024-03-17T12:21:59;1.10;;;0.77;;
75634;SDS011;64227;48.724;9.104;2024-03-17T12:24:26;1.52;;;0.90;;
75634;SDS011;64227;48.724;9.104;2024-03-17T12:26:53;3.92;;;0.80;;
75634;SDS011;64227;48.724;9.104;2024-03-17T12:31:58;1.40;;;0.77;;
75634;SDS011;64227;48.724;9.104;2024-03-17T12:34:26;1.90;;;0.70;;
75634;SDS011;64227;48.724;9.104;2024-03-17T12:36:53;2.13;;;0.77;;
75634;SDS011;64227;48.724;9.104;2024-03-17T12:39:19;1.55;;;0.80;;
75634;SDS011;64227;48.724;9.104;2024-03-17T12:42:00;0.73;;;0.55;;
75634;SDS011;64227;48.724;9.104;2024-03-17T12:44:31;0.75;;;0.70;;
75634;SDS011;64227;48.724;9.104;2024-03-17T12:46:58;2.08;;;0.80;;
75634;SDS011;64227;48.724;9.104;2024-03-17T12:49:27;1.02;;;0.73;;
75634;SDS011;64227;48.724;9.104;2024-03-17T12:51:56;2.15;;;0.60;;
75634;SDS011;64227;48.724;9.104;2024-03-17T12:54:25;3.10;;;0.88;;
75634;SDS011;64227;48.724;9.104;2024-03-17T12:56:52;3.28;;;0.90;;
75634;SDS011;64227;48.724;9.104;2024-03-17T12:59:47;1.38;;;0.80;;
75634;SDS011;64227;48.724;9.104;2024-03-17T13:02:45;1.10;;;0.70;;
75634;SDS011;64227;48.724;9.104;2024-03-17T13:05:14;1.13;;;0.70;;
75634;SDS011;64227;48.724;9.104;2024-03-17T13:07:43;1.10;;;0.65;;
75634;SDS011;64227;48.724;9.104;2024-03-17T13:10:11;0.90;;;0.60;;
75634;SDS011;64227;48.724;9.104;2024-03-17T13:12:38;0.93;;;0.50;;
75634;SDS011;64227;48.724;9.104;2024-03-17T13:15:03;1.20;;;0.77;;
75634;SDS011;64227;48.724;9.104;2024-03-17T13:17:29;1.00;;;0.70;;
75634;SDS011;64227;48.724;9.104;2024-03-17T13:19:58;2.35;;;0.60;;
75634;SDS011;64227;48.724;9.104;2024-03-17T13:22:24;1.58;;;0.98;;
75634;SDS011;64227;48.724;9.104;2024-03-17T13:24:49;1.55;;;0.52;;
75634;SDS011;64227;48.724;9.104;2024-03-17T13:27:15;1.23;;;0.70;;
75634;SDS011;64227;48.724;9.104;2024-03-17T13:29:40;1.67;;;0.60;;
75634;SDS011;64227;48.724;9.104;2024-03-17T13:32:09;1.70;;;0.60;;
75634;SDS011;64227;48.724;9.104;2024-03-17T13:37:02;4.43;;;0.67;;
75634;SDS011;64227;48.724;9.104;2024-03-17T13:39:32;1.67;;;0.80;;
75634;SDS011;64227;48.724;9.104;2024-03-17T13:41:58;3.92;;;1.00;;
75634;SDS011;64227;48.724;9.104;2024-03-17T13:44:31;1.75;;;0.63;;
75634;SDS011;64227;48.724;9.104;2024-03-17T13:46:57;0.90;;;0.57;;
75634;SDS011;64227;48.724;9.104;2024-03-17T13:49:29;1.15;;;0.60;;
75634;SDS011;64227;48.724;9.104;2024-03-17T13:51:55;2.97;;;0.70;;
75634;SDS011;64227;48.724;9.104;2024-03-17T13:54:20;0.98;;;0.57;;
75634;SDS011;64227;48.724;9.104;2024-03-17T13:56:51;0.85;;;0.70;;
75634;SDS011;64227;48.724;9.104;2024-03-17T13:59:17;1.30;;;0.75;;
75634;SDS011;64227;48.724;9.104;2024-03-17T14:01:42;1.10;;;0.60;;
75634;SDS011;64227;48.724;9.104;2024-03-17T14:04:15;1.60;;;0.70;;
75634;SDS011;64227;48.724;9.104;2024-03-17T14:06:43;2.42;;;1.25;;
75634;SDS011;64227;48.724;9.104;2024-03-17T14:11:36;0.82;;;0.43;;
75634;SDS011;64227;48.724;9.104;2024-03-17T14:14:02;0.93;;;0.57;;
75634;SDS011;64227;48.724;9.104;2024-03-17T14:16:29;1.27;;;0.60;;
75634;SDS011;64227;48.724;9.104;2024-03-17T14:18:56;1.73;;;0.80;;
75634;SDS011;64227;48.724;9.104;2024-03-17T14:21:22;0.60;;;0.50;;
75634;SDS011;64227;48.724;9.104;2024-03-17T14:23:47;0.73;;;0.50;;
75634;SDS011;64227;48.724;9.104;2024-03-17T14:26:12;1.65;;;0.85;;
75634;SDS011;64227;48.724;9.104;2024-03-17T14:28:38;1.60;;;0.65;;
75634;SDS011;64227;48.724;9.104;2024-03-17T14:31:05;0.55;;;0.47;;
75634;SDS011;64227;48.724;9.104;2024-03-17T14:33:31;1.33;;;0.40;;
75634;SDS011;64227;48.724;9.104;2024-03-17T14:35:57;0.95;;;0.40;;
75634;SDS011;64227;48.724;9.104;2024-03-17T14:38:23;2.38;;;0.90;;
75634;SDS011;64227;48.724;9.104;2024-03-17T14:40:55;1.90;;;0.70;;
75634;SDS011;64227;48.724;9.104;2024-03-17T14:43:20;0.65;;;0.55;;
75634;SDS011;64227;48.724;9.104;2024-03-17T14:45:46;1.50;;;1.13;;
75634;SDS011;64227;48.724;9.104;2024-03-17T14:48:11;1.00;;;0.73;;
75634;SDS011;64227;48.724;9.104;2024-03-17T14:50:38;1.38;;;0.57;;
75634;SDS011;64227;48.724;9.104;2024-03-17T14:53:04;0.82;;;0.70;;
75634;SDS011;64227;48.724;9.104;2024-03-17T14:55:30;2.88;;;0.70;;
75634;SDS011;64227;48.724;9.104;2024-03-17T14:57:55;1.17;;;0.60;;
75634;SDS011;64227;48.724;9.104;2024-03-17T15:00:20;0.32;;;0.32;;
75634;SDS011;64227;48.724;9.104;2024-03-17T15:02:48;0.77;;;0.47;;
75634;SDS011;64227;48.724;9.104;2024-03-17T15:05:14;1.30;;;0.40;;
75634;SDS011;64227;48.724;9.104;2024-03-17T15:07:40;1.25;;;0.52;;
75634;SDS011;64227;48.724;9.104;2024-03-17T15:10:06;1.23;;;0.40;;
75634;SDS011;64227;48.724;9.104;2024-03-17T15:12:32;0.70;;;0.55;;
75634;SDS011;64227;48.724;9.104;2024-03-17T15:14:57;1.77;;;0.77;;
75634;SDS011;64227;48.724;9.104;2024-03-17T15:17:22;2.80;;;0.60;;
75634;SDS011;64227;48.724;9.104;2024-03-17T15:19:48;1.63;;;0.63;;
75634;SDS011;64227;48.724;9.104;2024-03-17T15:22:13;1.52;;;0.68;;
75634;SDS011;64227;48.724;9.104;2024-03-17T15:24:38;0.35;;;0.30;;
75634;SDS011;64227;48.724;9.104;2024-03-17T15:27:04;0.30;;;0.30;;
75634;SDS011;64227;48.724;9.104;2024-03-17T15:29:30;1.60;;;0.52;;
75634;SDS011;64227;48.724;9.104;2024-03-17T15:31:55;0.75;;;0.35;;
75634;SDS011;64227;48.724;9.104;2024-03-17T15:34:22;1.10;;;0.50;;
75634;SDS011;64227;48.724;9.104;2024-03-17T15:36:47;1.10;;;0.57;;
75634;SDS011;64227;48.724;9.104;2024-03-17T15:39:14;0.77;;;0.40;;